createdAt,value
2023-04-22T19:33:45.495Z,2.22
2023-04-22T19:38:37.735Z,3.05
2023-04-22T19:43:29.688Z,3.08
2023-04-22T19:48:21.807Z,4.30
2023-04-22T19:53:14.068Z,5.20
2023-04-22T19:58:05.956Z,5.43
2023-04-22T20:03:01.471Z,5.75
2023-04-22T20:07:58.026Z,7.70
2023-04-22T20:12:51.149Z,7.47
2023-04-22T20:17:43.651Z,8.38
2023-04-22T20:22:36.222Z,8.90
2023-04-22T20:27:34.811Z,9.27
2023-04-22T20:32:30.606Z,9.70
2023-04-22T20:37:23.949Z,9.77
2023-04-22T20:42:20.423Z,10.13
2023-04-22T20:47:13.679Z,10.75
2023-04-22T20:52:05.593Z,10.90
2023-04-22T20:56:57.898Z,10.77
2023-04-22T21:01:50.489Z,10.63
2023-04-22T21:06:45.326Z,9.97
2023-04-22T21:11:37.362Z,9.23
2023-04-22T21:16:30.695Z,9.73
2023-04-22T21:21:23.893Z,9.25
2023-04-22T21:26:17.388Z,8.53
2023-04-22T21:31:09.377Z,8.83
2023-04-22T21:36:01.157Z,8.63
2023-04-22T21:40:52.944Z,9.00
2023-04-22T21:45:44.861Z,7.60
2023-04-22T21:50:37.248Z,9.02
2023-04-22T21:55:29.049Z,8.98
2023-04-22T22:00:20.840Z,8.23
2023-04-22T22:05:14.679Z,9.30
2023-04-22T22:10:14.521Z,8.70
2023-04-22T22:15:09.170Z,9.45
2023-04-22T22:20:00.984Z,8.13
2023-04-22T22:24:52.845Z,10.02
2023-04-22T22:29:46.530Z,10.07
2023-04-22T22:34:38.551Z,9.93
2023-04-22T22:39:30.951Z,10.65
2023-04-22T22:44:22.718Z,10.32
2023-04-22T22:49:14.516Z,8.93
2023-04-22T22:54:06.796Z,9.53
2023-04-22T22:58:58.945Z,12.23
2023-04-22T23:03:50.993Z,12.52
2023-04-22T23:08:42.970Z,12.30
2023-04-22T23:13:34.733Z,12.27
2023-04-22T23:18:27.261Z,11.77
2023-04-22T23:23:19.331Z,12.18
2023-04-22T23:28:11.568Z,12.52
2023-04-22T23:33:04.742Z,12.20
2023-04-22T23:37:58.822Z,12.10
2023-04-22T23:42:50.573Z,11.73
2023-04-22T23:47:42.615Z,12.38
2023-04-22T23:52:40.613Z,12.57
2023-04-22T23:57:32.669Z,12.10
